Time;durP1;ratioP1;P1;durP2;ratioP2;P2;SDS_P1;SDS_P2;PMS_P1;PMS_P2;Temp;Humidity;BMP_temperature;BMP_pressure;BME280_temperature;BME280_humidity;BME280_pressure;Samples;Min_cycle;Max_cycle;Signal;HPM_P1;HPM_P2
2022/04/16 00:01:45;;;;;;;2.83;1.37;;;23.60;99.90;;;;;;5072918;28;20172;-68
2022/04/16 00:04:13;;;;;;;4.67;1.80;;;24.10;99.90;;;;;;5073066;28;20172;-68
2022/04/16 00:06:40;;;;;;;4.53;1.47;;;24.70;99.90;;;;;;5073023;28;20167;-69
2022/04/16 00:09:08;;;;;;;6.40;1.60;;;25.00;99.90;;;;;;5072869;28;20180;-68
2022/04/16 00:11:37;;;;;;;5.90;1.40;;;25.20;99.90;;;;;;5072690;28;20171;-68
2022/04/16 00:14:05;;;;;;;6.90;1.77;;;25.50;99.90;;;;;;5072879;28;20222;-69
2022/04/16 00:16:33;;;;;;;5.40;1.60;;;25.40;99.90;;;;;;5072734;28;20230;-69
2022/04/16 00:19:01;;;;;;;2.60;1.40;;;25.30;99.90;;;;;;5072993;28;20172;-68
2022/04/16 00:21:28;;;;;;;4.93;1.63;;;25.40;99.90;;;;;;5072665;28;20605;-68
2022/04/16 00:23:57;;;;;;;7.03;1.80;;;26.00;99.90;;;;;;5072695;28;20542;-68
2022/04/16 00:26:25;;;;;;;4.10;1.73;;;26.20;99.90;;;;;;5072911;28;20183;-69
2022/04/16 00:28:52;;;;;;;5.10;1.50;;;26.40;99.90;;;;;;5075253;28;20178;-68
2022/04/16 00:31:21;;;;;;;4.60;1.57;;;25.80;99.90;;;;;;5076771;28;20164;-68
2022/04/16 00:33:48;;;;;;;7.97;1.77;;;26.20;99.90;;;;;;5075302;28;20215;-68
2022/04/16 00:36:16;;;;;;;6.37;1.90;;;25.60;99.90;;;;;;5076845;28;20533;-68
2022/04/16 00:38:44;;;;;;;5.60;1.83;;;26.00;99.90;;;;;;5076604;28;20179;-68
2022/04/16 00:41:12;;;;;;;1.83;1.10;;;26.40;99.90;;;;;;5076584;28;20175;-69
2022/04/16 00:43:40;;;;;;;5.00;1.47;;;26.60;99.90;;;;;;5076421;28;20205;-69
2022/04/16 00:46:08;;;;;;;2.13;1.20;;;26.90;99.90;;;;;;5076477;28;20637;-69
2022/04/16 00:48:35;;;;;;;3.73;1.63;;;27.20;99.90;;;;;;5076219;28;20179;-70
2022/04/16 00:51:03;;;;;;;3.93;1.40;;;27.30;99.90;;;;;;5076457;28;20168;-69
2022/04/16 00:53:31;;;;;;;3.13;1.23;;;27.90;99.90;;;;;;5076096;28;20208;-69
2022/04/16 00:56:00;;;;;;;4.67;2.00;;;28.30;99.90;;;;;;5076184;28;20515;-70
2022/04/16 00:58:28;;;;;;;6.90;1.77;;;27.40;99.90;;;;;;5076417;28;20182;-69
2022/04/16 01:00:56;;;;;;;4.05;1.25;;;27.80;99.90;;;;;;5074663;28;20549;-69
2022/04/16 01:03:26;;;;;;;6.13;1.40;;;27.70;99.90;;;;;;5076199;28;20172;-69
2022/04/16 01:05:55;;;;;;;4.20;1.40;;;27.40;99.90;;;;;;5076020;28;20180;-69
2022/04/16 01:08:23;;;;;;;6.43;1.40;;;27.40;99.90;;;;;;5075860;28;20233;-69
2022/04/16 01:10:50;;;;;;;2.80;1.20;;;27.10;99.90;;;;;;5075985;28;20176;-70
2022/04/16 01:13:18;;;;;;;4.03;1.23;;;27.10;99.90;;;;;;5075909;28;20713;-70
2022/04/16 01:15:46;;;;;;;4.27;0.90;;;26.90;99.90;;;;;;5075653;28;20231;-69
2022/04/16 01:18:14;;;;;;;5.53;1.53;;;26.70;99.90;;;;;;5075701;28;20593;-69
2022/04/16 01:20:44;;;;;;;2.93;1.20;;;26.50;99.90;;;;;;5075679;28;20238;-69
2022/04/16 01:23:12;;;;;;;5.37;1.43;;;27.20;99.90;;;;;;5075710;28;20200;-70
2022/04/16 01:25:39;;;;;;;3.33;1.40;;;27.70;99.90;;;;;;5075734;28;20183;-70
2022/04/16 01:28:07;;;;;;;5.90;1.13;;;27.40;99.90;;;;;;5075352;28;20259;-70
2022/04/16 01:30:35;;;;;;;3.27;1.10;;;27.40;99.90;;;;;;5075565;28;20180;-67
2022/04/16 01:33:03;;;;;;;4.07;1.00;;;27.20;99.90;;;;;;5075319;28;20513;-70
2022/04/16 01:35:31;;;;;;;3.43;1.00;;;27.40;99.90;;;;;;5075429;28;20183;-70
2022/04/16 01:37:59;;;;;;;5.27;1.50;;;28.00;99.90;;;;;;5075436;28;20240;-68
2022/04/16 01:40:27;;;;;;;4.37;1.17;;;28.60;99.90;;;;;;5074917;28;20651;-68
2022/04/16 01:42:57;;;;;;;3.80;1.10;;;28.80;99.90;;;;;;5075518;28;20206;-71
2022/04/16 01:45:26;;;;;;;8.53;1.57;;;29.10;99.90;;;;;;5075019;28;20176;-67
2022/04/16 01:47:54;;;;;;;3.07;1.00;;;29.40;99.90;;;;;;5075395;28;20195;-69
2022/04/16 01:50:22;;;;;;;5.43;1.57;;;29.00;99.90;;;;;;5073498;28;20553;-69
2022/04/16 01:52:49;;;;;;;5.13;1.40;;;28.50;99.90;;;;;;5073925;28;20187;-69
2022/04/16 01:55:17;;;;;;;6.25;1.27;;;28.80;99.90;;;;;;5075068;28;20219;-68
2022/04/16 01:57:45;;;;;;;3.70;1.13;;;29.10;99.90;;;;;;5075169;28;20172;-69
2022/04/16 02:00:14;;;;;;;3.10;0.80;;;28.90;99.90;;;;;;5075117;28;20180;-69
2022/04/16 02:02:43;;;;;;;24.63;2.37;;;27.90;99.90;;;;;;5074904;28;20183;-69
2022/04/16 02:05:11;;;;;;;3.73;0.70;;;27.90;99.90;;;;;;5074849;28;20255;-67
2022/04/16 02:07:39;;;;;;;3.63;0.97;;;28.00;99.90;;;;;;5074969;28;20239;-68
2022/04/16 02:10:08;;;;;;;2.57;0.80;;;28.30;99.90;;;;;;5073468;28;20660;-69
2022/04/16 02:12:39;;;;;;;2.30;0.70;;;28.60;99.90;;;;;;5074689;28;20661;-69
2022/04/16 02:15:08;;;;;;;1.70;0.90;;;28.90;99.90;;;;;;5072982;28;20226;-69
2022/04/16 02:17:39;;;;;;;2.27;1.00;;;29.10;99.90;;;;;;5074685;28;20188;-69
2022/04/16 02:20:08;;;;;;;1.80;0.87;;;28.90;99.90;;;;;;5074751;28;20175;-69
2022/04/16 02:22:54;;;;;;;2.97;1.10;;;27.90;99.90;;;;;;5074684;28;20203;-69
2022/04/16 02:25:25;;;;;;;3.43;0.70;;;27.40;99.90;;;;;;5074682;28;20179;-68
2022/04/16 02:27:52;;;;;;;4.43;0.93;;;27.80;99.90;;;;;;5074607;28;20168;-69
2022/04/16 02:30:21;;;;;;;1.70;0.97;;;27.30;99.90;;;;;;5074257;28;20542;-69
2022/04/16 02:32:53;;;;;;;2.23;0.93;;;28.40;99.90;;;;;;5074542;28;20241;-69
2022/04/16 02:35:22;;;;;;;2.10;1.10;;;28.30;99.90;;;;;;5074473;28;20180;-69
2022/04/16 02:37:50;;;;;;;2.40;0.70;;;29.40;99.90;;;;;;5074199;28;20203;-69
2022/04/16 02:40:18;;;;;;;1.77;0.80;;;29.60;99.90;;;;;;5074319;28;20180;-69
2022/04/16 02:42:46;;;;;;;3.83;0.87;;;28.50;99.90;;;;;;5074065;28;20168;-69
2022/04/16 02:48:02;;;;;;;2.67;0.90;;;29.40;99.90;;;;;;5074564;28;20602;-69
2022/04/16 02:50:31;;;;;;;2.63;0.97;;;30.10;99.90;;;;;;5073561;28;20648;-69
2022/04/16 02:52:59;;;;;;;3.57;0.73;;;30.20;99.90;;;;;;5073945;28;20594;-70
2022/04/16 02:55:27;;;;;;;2.33;0.83;;;30.00;99.90;;;;;;5073918;28;20184;-69
2022/04/16 02:57:55;;;;;;;6.30;0.90;;;28.90;99.90;;;;;;5074124;28;20180;-69
2022/04/16 03:00:25;;;;;;;1.57;0.80;;;27.80;99.90;;;;;;5073946;28;20180;-70
2022/04/16 03:02:53;;;;;;;2.57;1.07;;;27.60;99.90;;;;;;5073808;28;20259;-70
2022/04/16 03:05:22;;;;;;;3.63;0.80;;;27.40;99.90;;;;;;5073939;28;20191;-69
2022/04/16 03:07:50;;;;;;;2.00;0.80;;;26.30;99.90;;;;;;5073828;28;20182;-69
2022/04/16 03:10:17;;;;;;;3.63;0.70;;;26.30;99.90;;;;;;5073464;28;20621;-69
2022/04/16 03:12:52;;;;;;;2.57;1.03;;;25.90;99.90;;;;;;5073545;28;20648;-69
2022/04/16 03:18:18;;;;;;;3.60;1.47;;;26.10;99.90;;;;;;5053286;28;20193;-69
2022/04/16 03:20:46;;;;;;;2.90;0.90;;;25.80;99.90;;;;;;5072818;28;20211;-69
2022/04/16 03:23:13;;;;;;;4.97;0.90;;;26.60;99.90;;;;;;5072746;28;20272;-70
2022/04/16 03:25:45;;;;;;;4.17;0.70;;;27.00;99.90;;;;;;5072603;28;20184;-69
2022/04/16 03:28:13;;;;;;;3.23;1.10;;;26.90;99.90;;;;;;5072435;28;20203;-69
2022/04/16 03:30:41;;;;;;;2.00;1.17;;;26.70;99.90;;;;;;5072485;28;20179;-69
2022/04/16 03:33:09;;;;;;;3.60;1.67;;;27.30;99.90;;;;;;5072336;28;20180;-69
2022/04/16 03:35:37;;;;;;;4.77;1.30;;;27.50;99.90;;;;;;5071259;28;20195;-67
2022/04/16 03:38:05;;;;;;;3.83;1.20;;;26.60;99.90;;;;;;5071473;28;20188;-68
2022/04/16 03:40:33;;;;;;;2.97;1.20;;;26.30;99.90;;;;;;5071430;28;20188;-69
2022/04/16 03:43:02;;;;;;;3.13;1.10;;;26.30;99.90;;;;;;5069400;28;20551;-68
2022/04/16 03:45:32;;;;;;;3.23;1.03;;;26.20;99.90;;;;;;5071054;28;20194;-68
2022/04/16 03:48:04;;;;;;;2.30;1.10;;;26.80;99.90;;;;;;5072414;28;20179;-68
2022/04/16 03:50:32;;;;;;;2.50;1.07;;;27.30;99.90;;;;;;5071097;28;20172;-69
2022/04/16 03:53:00;;;;;;;1.87;1.10;;;27.50;99.90;;;;;;5070979;28;20183;-68
2022/04/16 04:01:04;;;;;;;2.97;1.03;;;28.30;99.90;;;;;;5071004;28;20199;-68
2022/04/16 04:03:31;;;;;;;3.17;1.20;;;27.30;99.90;;;;;;5069538;28;20679;-69
2022/04/16 04:06:01;;;;;;;3.57;1.43;;;27.30;99.90;;;;;;5070739;28;20184;-69
2022/04/16 04:08:30;;;;;;;3.60;0.97;;;27.10;99.90;;;;;;5070324;28;20270;-69
2022/04/16 04:10:57;;;;;;;2.47;0.90;;;26.60;99.90;;;;;;5070623;28;20184;-68
2022/04/16 04:13:26;;;;;;;4.97;1.47;;;26.00;99.90;;;;;;5068932;28;20215;-67
2022/04/16 04:15:54;;;;;;;2.80;1.37;;;26.10;99.90;;;;;;4946898;28;3502917;-68
2022/04/16 04:18:24;;;;;;;2.70;1.00;;;27.40;99.90;;;;;;5070855;28;20275;-69
2022/04/16 04:20:52;;;;;;;3.17;1.17;;;27.50;99.90;;;;;;5070804;28;20207;-68
2022/04/16 04:23:20;;;;;;;1.80;0.97;;;28.00;99.90;;;;;;5070951;28;20188;-69
2022/04/16 04:25:48;;;;;;;2.23;1.00;;;28.50;99.90;;;;;;5069962;28;20542;-69
2022/04/16 04:28:16;;;;;;;3.17;1.00;;;28.30;99.90;;;;;;5070979;28;20175;-69
2022/04/16 04:30:43;;;;;;;12.17;1.70;;;27.80;99.90;;;;;;5071225;28;20274;-68
2022/04/16 04:33:11;;;;;;;6.20;1.20;;;27.70;99.90;;;;;;5071409;28;20180;-66
2022/04/16 04:35:39;;;;;;;7.67;1.90;;;28.10;99.90;;;;;;5071493;28;20199;-68
2022/04/16 04:38:06;;;;;;;7.43;1.20;;;28.20;99.90;;;;;;5071413;28;20312;-67
2022/04/16 04:40:34;;;;;;;6.10;1.80;;;28.20;99.90;;;;;;5071349;28;20184;-68
2022/04/16 04:43:02;;;;;;;5.37;1.30;;;27.80;99.90;;;;;;5071359;28;20179;-68
2022/04/16 04:45:29;;;;;;;7.47;1.37;;;27.70;99.90;;;;;;5071212;28;20207;-68
2022/04/16 04:47:57;;;;;;;5.03;1.37;;;27.20;99.90;;;;;;5071468;28;20634;-68
2022/04/16 04:50:25;;;;;;;8.20;1.43;;;27.00;99.90;;;;;;5071285;28;20184;-68
2022/04/16 04:52:53;;;;;;;4.90;1.60;;;26.70;99.90;;;;;;5071310;28;20574;-68
2022/04/16 04:55:20;;;;;;;5.60;2.00;;;26.40;99.90;;;;;;5071106;28;20227;-68
2022/04/16 04:57:54;;;;;;;5.90;2.10;;;26.50;99.90;;;;;;5071350;28;20199;-68
2022/04/16 05:00:21;;;;;;;3.70;1.43;;;26.50;99.90;;;;;;5071153;28;20195;-68
2022/04/16 05:02:49;;;;;;;6.40;2.37;;;26.70;99.90;;;;;;5071246;28;20172;-68
2022/04/16 05:05:18;;;;;;;7.50;1.93;;;26.70;99.90;;;;;;5071083;28;20629;-68
2022/04/16 05:07:46;;;;;;;5.73;1.63;;;26.40;99.90;;;;;;5069865;28;20179;-68
2022/04/16 05:10:14;;;;;;;4.20;1.50;;;26.20;99.90;;;;;;5071024;28;20895;-68
2022/04/16 05:12:41;;;;;;;15.90;2.40;;;25.70;99.90;;;;;;5071234;28;20173;-67
2022/04/16 05:15:10;;;;;;;10.67;1.70;;;25.10;99.90;;;;;;5072839;28;20279;-68
2022/04/16 05:17:38;;;;;;;3.70;1.57;;;24.80;99.90;;;;;;5073930;28;20204;-67
2022/04/16 05:20:09;;;;;;;9.97;1.90;;;24.50;99.90;;;;;;5072606;28;20188;-67
2022/04/16 05:22:38;;;;;;;4.87;1.77;;;24.20;99.90;;;;;;5073503;28;20179;-67
2022/04/16 05:25:06;;;;;;;7.10;2.23;;;24.40;99.90;;;;;;5073114;28;20180;-68
2022/04/16 05:27:34;;;;;;;6.90;2.10;;;24.30;99.90;;;;;;5074505;28;20634;-67
2022/04/16 05:30:13;;;;;;;3.43;1.43;;;24.30;99.90;;;;;;5074171;28;20591;-68
2022/04/16 05:32:42;;;;;;;7.00;2.00;;;24.00;99.90;;;;;;5074322;28;20179;-67
2022/04/16 05:35:11;;;;;;;3.23;1.70;;;23.90;99.90;;;;;;5074328;28;20298;-67
2022/04/16 05:37:40;;;;;;;10.63;2.10;;;23.80;99.90;;;;;;5074215;28;20186;-67
2022/04/16 05:40:08;;;;;;;7.77;2.07;;;23.80;99.90;;;;;;5072705;28;20646;-67
2022/04/16 05:42:43;;;;;;;9.37;1.80;;;23.90;99.90;;;;;;5074259;28;20179;-68
2022/04/16 05:45:14;;;;;;;7.30;1.97;;;23.90;99.90;;;;;;5073858;28;20708;-68
2022/04/16 05:47:44;;;;;;;7.67;2.17;;;23.80;99.90;;;;;;5074101;28;20186;-68
2022/04/16 05:50:12;;;;;;;6.37;1.57;;;23.70;99.90;;;;;;5073851;28;20666;-68
2022/04/16 05:52:41;;;;;;;1.90;1.30;;;23.50;99.90;;;;;;5073974;28;20187;-68
2022/04/16 05:55:10;;;;;;;5.27;1.67;;;23.60;99.90;;;;;;5073726;28;20306;-67
2022/04/16 05:57:38;;;;;;;4.73;1.80;;;23.50;99.90;;;;;;5073838;28;20242;-68
2022/04/16 06:00:07;;;;;;;5.70;1.60;;;23.50;99.90;;;;;;5073748;28;20190;-68
2022/04/16 06:02:34;;;;;;;8.20;1.67;;;23.40;99.90;;;;;;5073623;28;20183;-67
2022/04/16 06:05:02;;;;;;;8.30;1.93;;;23.20;99.90;;;;;;5073361;28;20270;-67
2022/04/16 06:07:30;;;;;;;6.73;1.90;;;23.10;99.90;;;;;;5072750;28;20179;-65
2022/04/16 06:09:57;;;;;;;7.93;1.70;;;23.00;99.90;;;;;;5071936;28;20208;-67
2022/04/16 06:12:27;;;;;;;9.70;1.90;;;23.00;99.90;;;;;;5073077;28;20539;-67
2022/04/16 06:14:55;;;;;;;6.97;2.27;;;22.90;99.90;;;;;;5072822;28;20285;-67
2022/04/16 06:17:22;;;;;;;6.53;2.30;;;22.80;99.90;;;;;;5072396;28;20237;-67
2022/04/16 06:19:50;;;;;;;5.90;2.43;;;22.90;99.90;;;;;;5062191;28;20187;-67
2022/04/16 06:22:18;;;;;;;4.83;2.00;;;22.80;99.90;;;;;;5072752;28;20176;-67
2022/04/16 06:24:45;;;;;;;5.70;1.73;;;22.70;99.90;;;;;;5072600;28;20662;-66
2022/04/16 06:27:13;;;;;;;5.13;2.43;;;22.60;99.90;;;;;;5072066;28;20195;-68
2022/04/16 06:29:41;;;;;;;6.07;2.37;;;22.50;99.90;;;;;;5072467;28;20274;-68
2022/04/16 06:32:09;;;;;;;6.77;1.90;;;22.50;99.90;;;;;;5072445;28;20187;-67
2022/04/16 06:34:36;;;;;;;7.10;2.50;;;22.40;99.90;;;;;;5069350;28;20205;-67
2022/04/16 06:37:04;;;;;;;14.27;2.13;;;22.50;99.90;;;;;;5072252;28;20195;-67
2022/04/16 06:39:32;;;;;;;16.47;2.30;;;22.60;99.90;;;;;;5072544;28;20193;-67
2022/04/16 06:42:00;;;;;;;12.63;2.30;;;22.60;99.90;;;;;;5072547;28;20672;-67
2022/04/16 06:44:28;;;;;;;12.67;2.10;;;22.70;99.90;;;;;;5072327;28;20204;-68
2022/04/16 06:46:56;;;;;;;5.00;1.87;;;22.80;99.90;;;;;;5072186;28;20183;-68
2022/04/16 06:49:25;;;;;;;6.23;2.23;;;23.10;99.90;;;;;;5072527;28;20237;-68
2022/04/16 06:51:53;;;;;;;7.17;2.10;;;23.10;99.90;;;;;;5071332;28;20213;-68
2022/04/16 06:54:21;;;;;;;9.87;1.73;;;23.10;99.90;;;;;;5071362;28;20220;-68
2022/04/16 06:56:49;;;;;;;5.63;1.80;;;23.00;99.90;;;;;;5072664;28;20248;-71
2022/04/16 06:59:16;;;;;;;8.47;2.07;;;22.80;99.90;;;;;;5072315;28;20546;-68
2022/04/16 07:01:44;;;;;;;12.13;3.17;;;22.60;99.90;;;;;;5071886;28;20183;-69
2022/04/16 07:04:12;;;;;;;7.60;2.27;;;22.30;99.90;;;;;;5071894;28;20181;-67
2022/04/16 07:06:41;;;;;;;8.07;2.20;;;22.20;99.90;;;;;;5071903;28;20310;-67
2022/04/16 07:09:10;;;;;;;10.87;2.10;;;22.00;99.90;;;;;;5071330;28;20257;-67
2022/04/16 07:11:38;;;;;;;4.53;1.90;;;21.90;99.90;;;;;;5072407;28;20176;-67
2022/04/16 07:14:05;;;;;;;8.13;2.00;;;21.80;99.90;;;;;;5071327;28;20219;-67
2022/04/16 07:16:33;;;;;;;5.73;2.07;;;21.70;99.90;;;;;;5071942;28;20223;-67
2022/04/16 07:19:01;;;;;;;6.03;2.00;;;21.60;99.90;;;;;;5071823;28;20200;-67
2022/04/16 07:21:28;;;;;;;5.30;2.07;;;21.60;99.90;;;;;;5071568;28;20175;-68
2022/04/16 07:23:56;;;;;;;4.63;2.10;;;21.50;99.90;;;;;;5070885;28;20234;-67
2022/04/16 07:26:24;;;;;;;5.40;2.63;;;21.40;99.90;;;;;;5072371;28;20176;-68
2022/04/16 07:28:51;;;;;;;5.13;2.00;;;21.30;99.90;;;;;;5071021;28;20669;-67
2022/04/16 07:31:19;;;;;;;4.97;2.13;;;21.20;99.90;;;;;;5070366;28;20241;-69
2022/04/16 07:33:47;;;;;;;12.80;2.87;;;21.10;99.90;;;;;;5071434;28;20682;-68
2022/04/16 07:36:15;;;;;;;10.77;2.60;;;21.10;99.90;;;;;;5072125;28;20255;-68
2022/04/16 07:38:43;;;;;;;6.50;2.10;;;21.00;99.90;;;;;;5071527;28;20172;-67
2022/04/16 07:41:11;;;;;;;7.23;2.57;;;20.90;99.90;;;;;;5072126;28;20254;-68
2022/04/16 07:43:39;;;;;;;6.80;2.20;;;20.80;99.90;;;;;;5071357;28;20238;-68
2022/04/16 07:46:06;;;;;;;5.00;2.07;;;20.70;99.90;;;;;;5072066;28;20172;-69
2022/04/16 07:48:34;;;;;;;10.43;2.57;;;20.60;99.90;;;;;;5071796;28;20191;-69
2022/04/16 07:51:02;;;;;;;6.43;2.77;;;20.50;99.90;;;;;;5072012;28;20172;-68
2022/04/16 07:53:30;;;;;;;10.50;2.40;;;20.40;99.90;;;;;;5071517;28;20231;-68
2022/04/16 07:55:58;;;;;;;6.43;2.53;;;20.40;99.90;;;;;;5059976;28;20193;-68
2022/04/16 07:58:26;;;;;;;13.23;2.73;;;20.30;99.90;;;;;;5072129;28;20179;-68
2022/04/16 08:00:54;;;;;;;11.83;2.60;;;20.20;99.90;;;;;;5071610;28;20177;-68
2022/04/16 08:03:22;;;;;;;8.30;2.87;;;20.10;99.90;;;;;;5071479;28;20271;-68
2022/04/16 08:05:50;;;;;;;11.90;3.10;;;20.00;99.90;;;;;;5071746;28;20293;-66
2022/04/16 08:08:17;;;;;;;5.90;2.33;;;19.90;99.90;;;;;;5070923;28;20193;-69
2022/04/16 08:10:46;;;;;;;9.37;3.00;;;19.80;99.90;;;;;;5071688;28;20189;-69
2022/04/16 08:13:13;;;;;;;14.67;3.50;;;19.70;99.90;;;;;;5071375;28;20648;-69
2022/04/16 08:15:41;;;;;;;9.70;3.27;;;19.60;99.90;;;;;;5070091;28;20227;-68
2022/04/16 08:18:09;;;;;;;13.80;4.63;;;19.50;99.90;;;;;;5070063;28;20187;-67
2022/04/16 08:20:36;;;;;;;17.60;5.60;;;19.40;99.90;;;;;;5069652;28;20195;-68
2022/04/16 08:23:06;;;;;;;14.03;5.07;;;19.40;99.90;;;;;;5071164;28;20192;-69
2022/04/16 08:28:06;;;;;;;22.60;5.57;;;19.30;99.90;;;;;;5071092;28;20211;-69
2022/04/16 08:30:34;;;;;;;11.23;4.20;;;19.20;99.90;;;;;;5071704;28;20208;-68
2022/04/16 08:33:02;;;;;;;14.90;3.80;;;19.20;99.90;;;;;;5071358;28;20193;-68
2022/04/16 08:35:30;;;;;;;11.73;4.20;;;19.10;99.90;;;;;;5070947;28;20264;-68
2022/04/16 08:37:58;;;;;;;9.50;3.73;;;19.00;99.90;;;;;;5053736;28;20204;-69
2022/04/16 08:40:25;;;;;;;12.40;4.37;;;19.00;99.90;;;;;;5071609;28;20186;-68
2022/04/16 08:42:54;;;;;;;11.97;4.27;;;18.90;99.90;;;;;;5072079;28;20188;-68
2022/04/16 08:45:22;;;;;;;13.10;4.10;;;18.80;99.90;;;;;;5072199;28;20667;-68
2022/04/16 08:47:50;;;;;;;10.37;3.80;;;18.80;99.90;;;;;;5072562;28;20189;-67
2022/04/16 08:50:18;;;;;;;8.73;3.40;;;18.80;99.90;;;;;;5074818;28;20201;-68
2022/04/16 08:52:47;;;;;;;13.80;4.93;;;18.70;99.90;;;;;;5076159;28;20191;-67
2022/04/16 08:55:15;;;;;;;17.47;4.60;;;18.60;99.90;;;;;;5076347;28;20592;-69
2022/04/16 08:57:42;;;;;;;8.97;3.60;;;18.60;99.90;;;;;;5076299;28;20176;-68
2022/04/16 09:00:14;;;;;;;11.50;4.73;;;18.50;99.90;;;;;;5076169;28;20653;-67
2022/04/16 09:02:56;;;;;;;20.80;4.87;;;18.40;99.90;;;;;;5076056;28;20184;-69
2022/04/16 09:05:26;;;;;;;13.40;4.93;;;18.40;99.90;;;;;;5076388;28;20190;-69
2022/04/16 09:07:59;;;;;;;20.53;4.07;;;18.40;99.90;;;;;;5076178;28;20192;-68
2022/04/16 09:10:29;;;;;;;15.20;5.47;;;18.40;99.90;;;;;;5075558;28;20176;-67
2022/04/16 09:12:59;;;;;;;15.47;4.70;;;18.30;99.90;;;;;;5076215;28;20180;-70
2022/04/16 09:15:28;;;;;;;15.67;5.27;;;18.20;99.90;;;;;;5075516;28;20678;-67
2022/04/16 09:18:07;;;;;;;10.00;5.07;;;18.20;99.90;;;;;;5075769;28;20635;-68
2022/04/16 09:20:40;;;;;;;16.63;5.03;;;18.10;99.90;;;;;;5075408;28;20187;-68
2022/04/16 09:23:20;;;;;;;11.33;5.73;;;18.00;99.90;;;;;;5076036;28;20175;-67
2022/04/16 09:25:48;;;;;;;14.50;4.73;;;18.00;99.90;;;;;;5076016;28;20543;-69
2022/04/16 09:28:21;;;;;;;18.43;5.90;;;17.90;99.90;;;;;;5075388;28;20185;-67
2022/04/16 09:30:56;;;;;;;27.33;5.70;;;17.90;99.90;;;;;;5075435;28;20202;-69
2022/04/16 09:33:24;;;;;;;16.27;5.00;;;17.80;99.90;;;;;;5076105;28;20346;-68
2022/04/16 09:35:56;;;;;;;11.10;5.17;;;17.80;99.90;;;;;;5075537;28;20226;-67
2022/04/16 09:38:30;;;;;;;13.87;4.97;;;17.70;99.90;;;;;;5055580;28;20208;-68
2022/04/16 09:41:08;;;;;;;10.57;5.07;;;17.70;99.90;;;;;;5055509;28;20177;-69
2022/04/16 09:43:37;;;;;;;9.53;4.73;;;17.70;99.90;;;;;;5055498;28;20188;-67
2022/04/16 09:46:13;;;;;;;9.37;5.50;;;17.60;99.90;;;;;;5056062;28;20222;-67
2022/04/16 09:48:41;;;;;;;7.80;5.30;;;17.60;99.90;;;;;;5074748;28;20211;-67
2022/04/16 09:51:10;;;;;;;16.00;5.87;;;17.60;99.90;;;;;;5075289;28;20168;-68
2022/04/16 09:53:39;;;;;;;9.57;6.07;;;17.60;99.90;;;;;;5075302;28;20203;-67
2022/04/16 09:56:11;;;;;;;15.93;6.43;;;17.50;99.90;;;;;;5074914;28;20183;-67
2022/04/16 09:58:42;;;;;;;11.33;5.80;;;17.50;99.90;;;;;;5075065;28;20279;-67
2022/04/16 10:01:10;;;;;;;13.43;5.70;;;17.50;99.90;;;;;;5075233;28;20168;-68
2022/04/16 10:03:40;;;;;;;12.17;5.87;;;17.40;99.90;;;;;;5075197;28;20172;-68
2022/04/16 10:06:08;;;;;;;9.30;5.37;;;17.30;99.90;;;;;;5073773;28;20188;-69
2022/04/16 10:08:37;;;;;;;12.87;6.10;;;17.30;99.90;;;;;;5074769;28;20183;-71
2022/04/16 10:11:05;;;;;;;13.33;5.87;;;17.20;99.90;;;;;;5075151;28;20495;-69
2022/04/16 10:13:41;;;;;;;16.60;6.27;;;17.20;99.90;;;;;;5074720;28;20258;-69
2022/04/16 10:16:16;;;;;;;15.17;6.63;;;17.10;99.90;;;;;;5074712;28;20227;-70
2022/04/16 10:18:45;;;;;;;9.90;6.60;;;17.10;99.90;;;;;;5074200;28;20258;-69
2022/04/16 10:21:18;;;;;;;12.47;7.07;;;17.10;99.90;;;;;;5074520;28;20358;-66
2022/04/16 10:23:46;;;;;;;14.17;7.27;;;17.10;99.90;;;;;;5074249;28;20194;-70
2022/04/16 10:26:16;;;;;;;13.00;6.90;;;17.10;99.90;;;;;;5074202;28;20187;-67
2022/04/16 10:28:53;;;;;;;17.90;7.53;;;17.00;99.90;;;;;;5074194;28;20203;-69
2022/04/16 10:31:30;;;;;;;14.53;7.13;;;17.00;99.90;;;;;;5074429;28;20706;-68
2022/04/16 10:34:02;;;;;;;13.27;7.03;;;17.00;99.90;;;;;;5074050;28;20199;-69
2022/04/16 10:36:37;;;;;;;13.97;7.60;;;17.00;99.90;;;;;;5073135;28;20184;-68
2022/04/16 10:39:19;;;;;;;15.27;6.87;;;16.90;99.90;;;;;;5074343;28;20180;-69
2022/04/16 10:42:04;;;;;;;13.07;7.20;;;16.80;99.90;;;;;;5074475;28;20660;-68
2022/04/16 10:44:47;;;;;;;15.63;8.63;;;16.80;99.90;;;;;;5074596;28;20230;-69
2022/04/16 10:47:18;;;;;;;20.00;8.47;;;16.90;99.90;;;;;;5074283;28;20176;-68
2022/04/16 10:49:46;;;;;;;14.53;8.73;;;16.90;99.90;;;;;;5074159;28;20254;-68
2022/04/16 10:52:24;;;;;;;17.40;9.63;;;16.80;99.90;;;;;;5074232;28;20714;-68
2022/04/16 10:55:02;;;;;;;16.77;9.13;;;16.80;99.90;;;;;;5073960;28;20716;-69
2022/04/16 10:57:29;;;;;;;17.23;9.50;;;16.70;99.90;;;;;;5074052;28;20186;-69
2022/04/16 10:59:58;;;;;;;17.90;9.40;;;16.70;99.90;;;;;;5073908;28;20178;-68
2022/04/16 11:02:27;;;;;;;14.67;9.00;;;16.70;99.90;;;;;;5072236;28;20563;-69
2022/04/16 11:05:09;;;;;;;20.83;9.00;;;16.60;99.90;;;;;;5072272;28;20226;-68
2022/04/16 11:07:42;;;;;;;15.17;9.70;;;16.60;99.90;;;;;;5073581;28;20546;-68
2022/04/16 11:10:13;;;;;;;22.50;11.97;;;16.60;99.90;;;;;;5073730;28;20179;-68
2022/04/16 11:12:43;;;;;;;19.97;11.87;;;16.60;99.90;;;;;;5071840;28;20180;-69
2022/04/16 11:15:24;;;;;;;23.50;11.93;;;16.60;99.90;;;;;;5073304;28;20228;-69
2022/04/16 11:17:58;;;;;;;23.03;11.73;;;16.60;99.90;;;;;;5074125;28;20175;-68
2022/04/16 11:20:28;;;;;;;20.77;11.60;;;16.50;99.90;;;;;;5073601;28;20185;-67
2022/04/16 11:22:56;;;;;;;22.27;12.47;;;16.50;99.90;;;;;;5073529;28;20184;-68
2022/04/16 11:25:25;;;;;;;21.43;11.53;;;16.40;99.90;;;;;;5071038;28;20191;-68
2022/04/16 11:36:13;;;;;;;22.17;12.93;;;16.30;99.90;;;;;;5073691;28;20191;-68
2022/04/16 11:38:42;;;;;;;18.20;11.40;;;16.30;99.90;;;;;;5073297;28;20254;-69
2022/04/16 11:41:12;;;;;;;17.70;10.70;;;16.20;99.90;;;;;;5073220;28;20247;-68
2022/04/16 11:43:52;;;;;;;18.87;11.40;;;16.20;99.90;;;;;;5073594;28;20176;-69
2022/04/16 11:46:22;;;;;;;18.17;10.83;;;16.20;99.90;;;;;;5073695;28;20175;-69
2022/04/16 11:48:51;;;;;;;20.60;11.97;;;16.10;99.90;;;;;;5071567;28;20679;-68
2022/04/16 11:51:20;;;;;;;16.07;10.77;;;16.00;99.90;;;;;;5071651;28;20180;-68
2022/04/16 11:53:53;;;;;;;18.13;10.83;;;16.00;99.90;;;;;;5073019;28;20628;-69
2022/04/16 11:56:24;;;;;;;18.40;11.37;;;16.00;99.90;;;;;;5070768;28;20180;-68
2022/04/16 11:58:52;;;;;;;22.37;12.10;;;16.00;99.90;;;;;;5073181;28;20184;-68
2022/04/16 12:01:24;;;;;;;19.60;12.23;;;16.00;99.90;;;;;;5073292;28;20207;-67
2022/04/16 12:03:58;;;;;;;23.83;13.03;;;16.00;99.90;;;;;;5073367;28;20196;-68
2022/04/16 12:06:27;;;;;;;22.50;14.80;;;16.00;99.90;;;;;;5073231;28;20176;-68
2022/04/16 12:08:56;;;;;;;27.20;14.27;;;15.90;99.90;;;;;;5072940;28;20195;-69
2022/04/16 12:11:24;;;;;;;25.17;15.23;;;15.90;99.90;;;;;;5073195;28;20271;-68
2022/04/16 12:13:52;;;;;;;23.30;15.47;;;15.90;99.90;;;;;;5072877;28;20214;-69
2022/04/16 12:16:19;;;;;;;22.40;14.77;;;15.90;99.90;;;;;;5072938;28;20284;-68
2022/04/16 12:18:48;;;;;;;28.77;15.03;;;15.90;99.90;;;;;;5072797;28;20172;-68
2022/04/16 12:21:17;;;;;;;23.67;14.43;;;15.90;99.90;;;;;;5072975;28;20171;-69
2022/04/16 12:23:46;;;;;;;22.60;13.80;;;15.90;99.90;;;;;;5072963;28;20198;-68
2022/04/16 12:26:16;;;;;;;24.83;14.03;;;15.80;99.90;;;;;;5077205;28;20187;-69
2022/04/16 12:28:55;;;;;;;20.87;13.53;;;15.80;99.90;;;;;;5076839;28;20183;-68
2022/04/16 12:31:29;;;;;;;20.87;13.97;;;15.80;99.90;;;;;;5076936;28;20191;-69
2022/04/16 12:33:57;;;;;;;20.70;12.63;;;15.80;99.90;;;;;;5076837;28;20687;-69
2022/04/16 12:36:25;;;;;;;18.53;11.23;;;15.80;99.90;;;;;;5076917;28;21149;-69
2022/04/16 12:38:54;;;;;;;16.97;11.27;;;15.70;99.90;;;;;;5076870;28;20168;-69
2022/04/16 12:41:21;;;;;;;19.90;10.03;;;15.70;99.90;;;;;;5076746;28;20176;-69
2022/04/16 12:43:49;;;;;;;19.43;10.60;;;15.70;99.90;;;;;;5076901;28;20184;-68
2022/04/16 12:46:17;;;;;;;16.97;11.70;;;15.60;99.90;;;;;;5076551;28;20175;-69
2022/04/16 12:48:45;;;;;;;20.67;13.03;;;15.60;99.90;;;;;;5076275;28;20176;-68
2022/04/16 12:51:13;;;;;;;23.57;13.03;;;15.50;99.90;;;;;;5076653;28;20645;-68
2022/04/16 12:53:41;;;;;;;21.30;12.77;;;15.60;99.90;;;;;;5076338;28;20204;-68
2022/04/16 12:56:08;;;;;;;20.57;12.50;;;15.50;99.90;;;;;;5076571;28;20176;-68
2022/04/16 12:58:36;;;;;;;18.87;12.87;;;15.50;99.90;;;;;;5076485;28;20180;-69
2022/04/16 13:01:04;;;;;;;23.60;13.87;;;15.50;99.90;;;;;;5076348;28;20187;-68
2022/04/16 13:03:31;;;;;;;34.33;14.00;;;15.50;99.90;;;;;;5076340;28;20183;-69
2022/04/16 13:05:59;;;;;;;20.57;12.67;;;15.50;99.90;;;;;;5076342;28;20168;-69
2022/04/16 13:08:29;;;;;;;16.80;11.63;;;15.40;99.90;;;;;;5075971;28;20249;-69
2022/04/16 13:10:57;;;;;;;20.37;13.97;;;15.40;99.90;;;;;;5076039;28;20176;-69
2022/04/16 13:13:25;;;;;;;20.67;13.23;;;15.40;99.90;;;;;;5076049;28;20195;-69